Airfield :
LOGIN :

Register | Disclaimer

   EN    FR    IT 

 










Legend :    VFR   Marginal VFR   IFR   Intensive IFR   Very Intensive IFR
Visi :
Ceiling :
>= 8 km
>= 3000ft
5 to 8 km
1000 to 3000 ft
1500m to 5 km
500 to 1000 ft
800 to 1500m
200 to 500 ft
< 800m
< 200 ft
Symbols :   Thunderstorms  Fog  Heavy snow  Heavy precipitations  Wind > 20 kt
SIGMETs :     Misc.  Thunderstorms  Icing  Turbulence  Mountain Waves  Volcanic Ashes







- Airport Elevation : 36 ft
- IATA code : LTQ
- Download approach charts


LFAT - Le Touquet

CURRENT METAR :
  • 301400Z AUTO 17011KT 140V220 CAVOK 22/08 Q1019 NOSIG

EXPIRED METARs :
  • 301330Z AUTO 18011KT 150V210 CAVOK 22/07 Q1020 NOSIG
  • 301300Z AUTO 17011KT 130V200 9999 NSC 22/07 Q1020 NOSIG
  • 301230Z AUTO 17011KT 140V210 9999 NSC 22/08 Q1021 NOSIG
  • 301200Z AUTO 16009KT 130V210 9999 NSC 21/09 Q1021 NOSIG
  • 301130Z AUTO 17010KT 130V210 9999 NSC 21/09 Q1022 NOSIG

TAF TAF LFAT
Valid from the 30 at 12:00 until the 30 at 21:00 UTC


301100Z 3012/3021 16008KT CAVOK
ATIS : +33 3 21 06 62 84
No reported NOTAMs for that airfield.



MET'MAP, your aeronautical weather chart ! - Copyright ORBIFLY December 2007 - Disclaimer

ORBIFLY MET'MAP TEAM :

Programming & Development : Alexandra Zaïnal
Concept & Development : Baudouin d'Aumeries
Co-Development & Prog : Marc-Olivier Méhu
Technical & hardware support : Manuel Goepfert

Contact : metmap@orbifly.com




SOURCES & CREDITS :

   NOAA